Time;durP1;ratioP1;P1;durP2;ratioP2;P2;SDS_P1;SDS_P2;PMS_P1;PMS_P2;Temp;Humidity;BMP_temperature;BMP_pressure;BME280_temperature;BME280_humidity;BME280_pressure;Samples;Min_cycle;Max_cycle;Signal;HPM_P1;HPM_P2
2023/01/08 00:01:14;;;;;;;;;;;20.60;55.90;;;;;;5080475;28;44166;-65
2023/01/08 00:03:42;;;;;;;;;;;20.60;55.90;;;;;;5079416;28;43472;-65
2023/01/08 00:06:14;;;;;;;;;;;20.60;55.90;;;;;;5080487;28;43493;-65
2023/01/08 00:08:41;;;;;;;;;;;20.60;55.90;;;;;;5073799;28;43342;-65
2023/01/08 00:11:09;;;;;;;;;;;20.60;55.90;;;;;;5083425;28;44156;-64
2023/01/08 00:13:37;;;;;;;;;;;20.60;55.90;;;;;;5078835;28;45490;-65
2023/01/08 00:16:15;;;;;;;;;;;20.60;55.90;;;;;;5082325;28;43360;-65
2023/01/08 00:18:43;;;;;;;;;;;20.60;55.80;;;;;;5077081;28;43486;-65
2023/01/08 00:21:11;;;;;;;;;;;20.60;55.90;;;;;;5080233;28;44596;-65
2023/01/08 00:23:38;;;;;;;;;;;20.50;55.80;;;;;;5079302;27;43331;-65
2023/01/08 00:26:07;;;;;;;;;;;20.60;55.90;;;;;;5077277;28;43537;-65
2023/01/08 00:28:34;;;;;;;;;;;20.60;56.50;;;;;;5078367;28;43522;-65
2023/01/08 00:31:05;;;;;;;;;;;20.60;55.90;;;;;;5078881;28;43800;-65
2023/01/08 00:33:32;;;;;;;;;;;20.50;55.90;;;;;;5079681;27;43472;-65
2023/01/08 00:36:05;;;;;;;;;;;20.50;56.00;;;;;;5076761;28;43398;-65
2023/01/08 00:38:32;;;;;;;;;;;20.50;56.00;;;;;;5080822;28;43533;-65
2023/01/08 00:40:59;;;;;;;;;;;20.50;56.00;;;;;;5082867;28;44635;-65
2023/01/08 00:43:27;;;;;;;;;;;20.50;56.00;;;;;;5078387;28;44952;-65
2023/01/08 00:45:54;;;;;;;;;;;20.50;56.00;;;;;;5079202;27;43382;-65
2023/01/08 00:48:21;;;;;;;;;;;20.50;55.90;;;;;;5079518;28;43495;-64
2023/01/08 00:50:49;;;;;;;;;;;20.50;55.90;;;;;;5079131;27;43805;-65
2023/01/08 00:53:17;;;;;;;;;;;20.50;56.00;;;;;;5078685;28;43508;-65
2023/01/08 00:55:44;;;;;;;;;;;20.50;56.00;;;;;;5075733;28;43380;-65
2023/01/08 00:58:12;;;;;;;;;;;20.50;56.00;;;;;;5083196;28;43462;-65
2023/01/08 01:00:40;;;;;;;;;;;20.50;56.00;;;;;;5079265;27;44899;-65
2023/01/08 01:03:07;;;;;;;;;;;20.40;55.90;;;;;;5079648;28;43514;-65
2023/01/08 01:05:34;;;;;;;;;;;20.40;56.00;;;;;;5074461;28;43407;-65
2023/01/08 01:08:02;;;;;;;;;;;20.40;55.90;;;;;;5078839;28;43466;-65
2023/01/08 01:10:29;;;;;;;;;;;20.40;56.00;;;;;;5079136;28;44077;-65
2023/01/08 01:12:56;;;;;;;;;;;20.40;56.00;;;;;;5078736;28;43491;-65
2023/01/08 01:15:24;;;;;;;;;;;20.40;55.90;;;;;;5075248;28;43483;-65
2023/01/08 01:17:51;;;;;;;;;;;20.40;56.00;;;;;;5079191;28;43475;-65
2023/01/08 01:20:19;;;;;;;;;;;20.40;56.00;;;;;;5078743;28;43788;-65
2023/01/08 01:22:46;;;;;;;;;;;20.40;56.00;;;;;;5079298;28;43649;-65
2023/01/08 01:25:13;;;;;;;;;;;20.40;56.00;;;;;;5075764;28;43496;-65
2023/01/08 01:27:41;;;;;;;;;;;20.40;56.10;;;;;;5077925;28;43462;-65
2023/01/08 01:30:09;;;;;;;;;;;20.40;56.00;;;;;;5078973;28;43617;-65
2023/01/08 01:32:37;;;;;;;;;;;20.40;56.70;;;;;;5078295;28;43359;-65
2023/01/08 01:35:04;;;;;;;;;;;20.40;56.00;;;;;;5074313;28;43387;-65
2023/01/08 01:37:31;;;;;;;;;;;20.40;56.00;;;;;;5068908;28;43486;-65
2023/01/08 01:39:59;;;;;;;;;;;20.40;56.00;;;;;;5078689;28;43891;-65
2023/01/08 01:42:38;;;;;;;;;;;20.30;56.60;;;;;;5078314;28;43370;-65
2023/01/08 01:45:15;;;;;;;;;;;20.30;56.00;;;;;;5074977;28;43922;-65
2023/01/08 01:47:44;;;;;;;;;;;20.30;56.00;;;;;;5078096;28;43425;-65
2023/01/08 01:50:12;;;;;;;;;;;20.30;56.00;;;;;;5078619;28;44616;-65
2023/01/08 01:52:44;;;;;;;;;;;20.30;56.00;;;;;;5081953;28;43481;-65
2023/01/08 01:55:12;;;;;;;;;;;20.30;56.00;;;;;;5078056;27;43382;-65
2023/01/08 01:57:44;;;;;;;;;;;20.30;56.00;;;;;;5078699;28;43469;-65
2023/01/08 02:00:11;;;;;;;;;;;20.30;56.00;;;;;;5078885;28;44150;-65
2023/01/08 02:02:38;;;;;;;;;;;20.30;56.00;;;;;;5073419;28;43424;-65
2023/01/08 02:05:07;;;;;;;;;;;20.20;56.00;;;;;;5078040;28;43375;-65
2023/01/08 02:07:39;;;;;;;;;;;20.20;56.00;;;;;;5078382;28;43454;-65
2023/01/08 02:10:10;;;;;;;;;;;20.20;56.00;;;;;;5077656;27;43789;-65
2023/01/08 02:12:42;;;;;;;;;;;20.20;56.00;;;;;;5075388;28;43402;-65
2023/01/08 02:15:14;;;;;;;;;;;20.20;56.00;;;;;;5081212;28;43490;-65
2023/01/08 02:17:51;;;;;;;;;;;20.20;56.00;;;;;;5061511;28;43519;-65
2023/01/08 02:20:55;;;;;;;;;;;20.20;56.00;;;;;;5057564;28;44061;-64
2023/01/08 02:23:28;;;;;;;;;;;20.20;56.00;;;;;;5039113;28;43945;-65
2023/01/08 02:25:58;;;;;;;;;;;20.20;56.10;;;;;;5053501;28;43475;-65
2023/01/08 02:28:26;;;;;;;;;;;20.20;56.10;;;;;;5055784;28;43481;-65
2023/01/08 02:30:54;;;;;;;;;;;20.10;56.00;;;;;;5057148;28;43781;-65
2023/01/08 02:33:22;;;;;;;;;;;20.10;56.00;;;;;;5058108;28;44057;-65
2023/01/08 02:36:08;;;;;;;;;;;20.10;56.00;;;;;;5057138;28;43454;-65
2023/01/08 02:38:38;;;;;;;;;;;20.10;56.00;;;;;;5044484;28;43400;-65
2023/01/08 02:41:08;;;;;;;;;;;20.20;56.10;;;;;;5057593;28;43574;-65
2023/01/08 02:43:45;;;;;;;;;;;20.20;56.10;;;;;;5055712;28;43441;-65
2023/01/08 02:46:23;;;;;;;;;;;20.10;56.00;;;;;;5055897;28;43431;-65
2023/01/08 02:48:53;;;;;;;;;;;20.10;56.00;;;;;;5054629;28;43514;-65
2023/01/08 02:51:25;;;;;;;;;;;20.10;56.00;;;;;;5057132;28;43999;-65
2023/01/08 02:54:03;;;;;;;;;;;20.10;56.00;;;;;;5057294;28;43463;-65
2023/01/08 02:56:40;;;;;;;;;;;20.10;56.00;;;;;;5060519;28;43522;-65
2023/01/08 02:59:09;;;;;;;;;;;20.10;56.00;;;;;;5040517;28;43393;-65
2023/01/08 03:01:37;;;;;;;;;;;20.10;56.00;;;;;;5052121;28;43801;-65
2023/01/08 03:04:16;;;;;;;;;;;20.10;56.10;;;;;;5056924;28;43980;-65
2023/01/08 03:06:44;;;;;;;;;;;20.10;56.10;;;;;;5055657;28;43477;-65
2023/01/08 03:09:11;;;;;;;;;;;20.10;56.10;;;;;;5056685;28;44212;-65
2023/01/08 03:11:42;;;;;;;;;;;20.00;56.10;;;;;;5035112;28;43907;-65
2023/01/08 03:14:15;;;;;;;;;;;20.00;56.10;;;;;;5054504;28;43417;-65
2023/01/08 03:16:47;;;;;;;;;;;20.00;56.00;;;;;;5071344;28;43396;-65
2023/01/08 03:19:18;;;;;;;;;;;20.00;56.00;;;;;;5077582;28;43436;-65
2023/01/08 03:21:46;;;;;;;;;;;20.00;56.00;;;;;;5080325;28;45634;-65
2023/01/08 03:24:16;;;;;;;;;;;20.00;56.00;;;;;;5081493;28;43518;-65
2023/01/08 03:26:44;;;;;;;;;;;20.00;56.10;;;;;;5079932;28;43518;-65
2023/01/08 03:29:13;;;;;;;;;;;20.00;56.00;;;;;;5077539;28;44030;-65
2023/01/08 03:31:41;;;;;;;;;;;20.00;56.00;;;;;;5084699;28;43853;-65
2023/01/08 03:34:09;;;;;;;;;;;20.00;56.00;;;;;;5080786;28;43462;-65
2023/01/08 03:36:38;;;;;;;;;;;20.00;56.00;;;;;;5080553;28;43448;-65
2023/01/08 03:39:14;;;;;;;;;;;19.90;56.00;;;;;;5077540;28;43459;-65
2023/01/08 03:41:41;;;;;;;;;;;20.00;56.10;;;;;;5079920;28;43789;-65
2023/01/08 03:44:08;;;;;;;;;;;20.00;56.10;;;;;;5080972;28;43372;-65
2023/01/08 03:46:41;;;;;;;;;;;19.90;56.00;;;;;;5085462;27;43500;-65
2023/01/08 03:49:09;;;;;;;;;;;19.90;56.00;;;;;;5080381;28;43420;-65
2023/01/08 03:51:41;;;;;;;;;;;19.90;56.00;;;;;;5080371;28;43812;-65
2023/01/08 03:54:11;;;;;;;;;;;19.90;56.00;;;;;;5080043;27;43415;-65
2023/01/08 03:56:38;;;;;;;;;;;19.90;56.00;;;;;;5076978;28;43406;-65
2023/01/08 03:59:06;;;;;;;;;;;19.90;56.00;;;;;;5079960;28;43572;-65
2023/01/08 04:01:34;;;;;;;;;;;19.90;56.00;;;;;;5078484;27;44133;-65
2023/01/08 04:04:01;;;;;;;;;;;19.90;56.10;;;;;;5075580;28;43561;-65
2023/01/08 04:06:29;;;;;;;;;;;19.90;56.00;;;;;;5079788;28;43412;-65
2023/01/08 04:08:56;;;;;;;;;;;19.90;56.00;;;;;;5078852;28;43530;-65
2023/01/08 04:11:25;;;;;;;;;;;19.90;56.00;;;;;;5080042;28;43796;-65
2023/01/08 04:13:53;;;;;;;;;;;19.90;56.10;;;;;;5079842;28;43780;-65
2023/01/08 04:16:21;;;;;;;;;;;19.80;56.00;;;;;;5075626;28;43424;-65
2023/01/08 04:18:49;;;;;;;;;;;19.80;56.00;;;;;;5079562;28;43511;-65
2023/01/08 04:21:17;;;;;;;;;;;19.80;56.10;;;;;;5084133;28;44021;-65
2023/01/08 04:23:44;;;;;;;;;;;19.80;56.10;;;;;;5079080;28;43503;-65
2023/01/08 04:26:12;;;;;;;;;;;20.20;56.30;;;;;;5075580;27;43424;-65
2023/01/08 04:28:39;;;;;;;;;;;19.80;56.30;;;;;;5079538;28;43464;-65
2023/01/08 04:31:07;;;;;;;;;;;19.80;56.10;;;;;;5083229;28;43792;-65
2023/01/08 04:33:34;;;;;;;;;;;19.80;56.10;;;;;;5079582;28;43449;-65
2023/01/08 04:36:02;;;;;;;;;;;19.80;56.10;;;;;;5075473;28;43394;-65
2023/01/08 04:38:30;;;;;;;;;;;19.80;56.10;;;;;;5079951;28;43519;-65
2023/01/08 04:41:01;;;;;;;;;;;19.80;56.10;;;;;;5082770;28;45021;-65
2023/01/08 04:43:29;;;;;;;;;;;19.80;56.10;;;;;;5077926;28;43402;-65
2023/01/08 04:45:57;;;;;;;;;;;19.70;56.10;;;;;;5079408;28;43408;-65
2023/01/08 04:48:26;;;;;;;;;;;19.70;56.10;;;;;;5068274;28;44069;-65
2023/01/08 04:50:53;;;;;;;;;;;19.70;56.10;;;;;;5075354;28;43800;-65
2023/01/08 04:53:20;;;;;;;;;;;19.70;56.10;;;;;;5083018;28;43476;-65
2023/01/08 04:55:48;;;;;;;;;;;19.70;56.10;;;;;;5079021;28;43565;-65
2023/01/08 04:58:15;;;;;;;;;;;19.70;56.00;;;;;;5071768;28;43430;-65
2023/01/08 05:00:42;;;;;;;;;;;19.70;56.00;;;;;;5078970;27;44066;-65
2023/01/08 05:03:10;;;;;;;;;;;19.70;56.00;;;;;;5076438;28;43433;-65
2023/01/08 05:05:37;;;;;;;;;;;19.70;56.10;;;;;;5075190;28;43461;-65
2023/01/08 05:08:05;;;;;;;;;;;19.70;56.10;;;;;;5079438;28;43613;-65
2023/01/08 05:10:32;;;;;;;;;;;19.70;56.10;;;;;;5079146;28;43733;-65
2023/01/08 05:12:59;;;;;;;;;;;19.70;56.10;;;;;;5078546;28;43315;-65
2023/01/08 05:15:27;;;;;;;;;;;19.70;56.10;;;;;;5074999;28;43544;-64
2023/01/08 05:18:05;;;;;;;;;;;19.60;56.10;;;;;;5076187;28;43558;-65
2023/01/08 05:20:33;;;;;;;;;;;19.60;56.00;;;;;;5078690;28;44170;-65
2023/01/08 05:23:01;;;;;;;;;;;19.60;56.00;;;;;;5077163;28;43466;-65
2023/01/08 05:25:28;;;;;;;;;;;19.60;56.10;;;;;;5076330;28;43474;-65
2023/01/08 05:27:55;;;;;;;;;;;19.60;56.10;;;;;;5079320;28;43466;-65
2023/01/08 05:30:23;;;;;;;;;;;19.60;56.10;;;;;;5078994;28;44734;-65
2023/01/08 05:32:50;;;;;;;;;;;19.60;56.10;;;;;;5081141;28;43378;-65
2023/01/08 05:35:17;;;;;;;;;;;19.60;56.10;;;;;;5079145;28;43436;-65
2023/01/08 05:37:45;;;;;;;;;;;19.60;56.10;;;;;;5078002;28;43471;-65
2023/01/08 05:40:12;;;;;;;;;;;19.60;56.10;;;;;;5078070;28;45012;-65
2023/01/08 05:42:39;;;;;;;;;;;19.60;56.10;;;;;;5077212;28;43991;-65
2023/01/08 05:45:07;;;;;;;;;;;19.60;56.10;;;;;;5077062;28;43427;-65
2023/01/08 05:47:34;;;;;;;;;;;19.60;56.10;;;;;;5077329;28;43520;-65
2023/01/08 05:50:02;;;;;;;;;;;19.60;56.10;;;;;;5078779;28;43554;-65
2023/01/08 05:52:29;;;;;;;;;;;19.60;56.10;;;;;;5077017;28;43914;-65
2023/01/08 05:54:58;;;;;;;;;;;19.60;56.20;;;;;;5075929;28;43463;-65
2023/01/08 05:57:26;;;;;;;;;;;19.60;56.10;;;;;;5078530;28;43433;-65
2023/01/08 05:59:53;;;;;;;;;;;19.50;56.10;;;;;;5078323;28;43917;-64
2023/01/08 06:02:20;;;;;;;;;;;19.50;56.10;;;;;;5071923;28;43526;-65
2023/01/08 06:04:48;;;;;;;;;;;19.50;56.20;;;;;;5080556;27;43447;-65
2023/01/08 06:07:15;;;;;;;;;;;19.50;56.10;;;;;;5080737;28;43442;-65
2023/01/08 06:09:42;;;;;;;;;;;19.50;56.10;;;;;;5077412;28;44724;-65
2023/01/08 06:12:10;;;;;;;;;;;19.60;56.10;;;;;;5078858;28;43654;-65
2023/01/08 06:14:37;;;;;;;;;;;19.50;56.00;;;;;;5075427;28;43376;-65
2023/01/08 06:17:04;;;;;;;;;;;19.50;56.00;;;;;;5077149;28;43440;-65
2023/01/08 06:19:32;;;;;;;;;;;19.60;56.10;;;;;;5070711;27;45838;-65
2023/01/08 06:21:59;;;;;;;;;;;19.50;56.00;;;;;;5076506;28;43453;-65
2023/01/08 06:24:26;;;;;;;;;;;19.50;56.00;;;;;;5076427;28;43377;-65
2023/01/08 06:26:53;;;;;;;;;;;19.50;56.00;;;;;;5077955;28;43481;-65
2023/01/08 06:29:21;;;;;;;;;;;19.50;56.00;;;;;;5080560;27;43992;-65
2023/01/08 06:31:48;;;;;;;;;;;19.50;56.00;;;;;;5075499;28;43513;-65
2023/01/08 06:34:15;;;;;;;;;;;19.50;56.10;;;;;;5078325;28;43378;-65
2023/01/08 06:36:43;;;;;;;;;;;19.50;56.10;;;;;;5076837;28;43470;-65
2023/01/08 06:39:10;;;;;;;;;;;19.50;56.10;;;;;;5080840;28;44109;-65
2023/01/08 06:41:38;;;;;;;;;;;19.50;56.00;;;;;;5077912;28;44077;-65
2023/01/08 06:44:05;;;;;;;;;;;19.50;56.10;;;;;;5077266;28;43316;-65
2023/01/08 06:46:38;;;;;;;;;;;19.50;56.00;;;;;;5078762;28;43592;-65
2023/01/08 06:49:06;;;;;;;;;;;19.50;56.00;;;;;;5064420;27;43855;-65
2023/01/08 06:51:34;;;;;;;;;;;19.40;56.00;;;;;;5083489;27;43595;-65
2023/01/08 06:54:02;;;;;;;;;;;19.40;56.00;;;;;;5078176;28;43491;-65
2023/01/08 06:56:29;;;;;;;;;;;19.40;56.10;;;;;;5082884;28;43513;-65
2023/01/08 06:58:56;;;;;;;;;;;19.40;56.10;;;;;;5080677;28;43768;-65
2023/01/08 07:01:25;;;;;;;;;;;19.40;56.00;;;;;;5078871;28;43512;-65
2023/01/08 07:03:52;;;;;;;;;;;19.40;56.00;;;;;;5078490;28;43371;-65
2023/01/08 07:06:20;;;;;;;;;;;19.40;56.00;;;;;;5084576;28;43476;-65
2023/01/08 07:08:48;;;;;;;;;;;19.40;56.00;;;;;;5080635;27;43850;-65
2023/01/08 07:11:16;;;;;;;;;;;19.40;56.00;;;;;;5089145;27;43454;-65
2023/01/08 07:13:44;;;;;;;;;;;19.40;56.10;;;;;;5081991;27;43516;-65
2023/01/08 07:16:12;;;;;;;;;;;19.40;56.10;;;;;;5081211;28;43489;-65
2023/01/08 07:18:39;;;;;;;;;;;19.40;56.10;;;;;;5080228;28;44076;-65
2023/01/08 07:21:08;;;;;;;;;;;19.40;56.10;;;;;;5078218;28;43511;-65
2023/01/08 07:23:37;;;;;;;;;;;19.40;56.10;;;;;;5081009;27;43447;-65
2023/01/08 07:26:05;;;;;;;;;;;19.30;56.00;;;;;;5080507;28;43523;-65
2023/01/08 07:28:33;;;;;;;;;;;19.30;56.10;;;;;;5080686;28;43964;-65
2023/01/08 07:31:04;;;;;;;;;;;19.40;56.10;;;;;;5077552;28;43811;-65
2023/01/08 07:33:32;;;;;;;;;;;19.30;56.00;;;;;;5082973;28;43528;-65
2023/01/08 07:35:59;;;;;;;;;;;19.30;56.00;;;;;;5086514;27;43441;-65
2023/01/08 07:38:27;;;;;;;;;;;19.30;56.00;;;;;;5069908;27;45952;-65
2023/01/08 07:40:56;;;;;;;;;;;19.30;56.00;;;;;;5077370;27;43453;-65
2023/01/08 07:43:24;;;;;;;;;;;19.30;56.00;;;;;;5081729;28;43470;-65
2023/01/08 07:45:52;;;;;;;;;;;19.30;56.10;;;;;;5078847;28;43485;-65
2023/01/08 07:48:19;;;;;;;;;;;19.30;56.10;;;;;;5083891;28;44786;-65
2023/01/08 07:50:47;;;;;;;;;;;19.30;56.10;;;;;;5080715;27;43439;-65
2023/01/08 07:53:16;;;;;;;;;;;19.30;56.10;;;;;;5079707;28;43379;-66
2023/01/08 07:55:43;;;;;;;;;;;19.30;56.10;;;;;;5080086;28;43469;-65
2023/01/08 07:58:12;;;;;;;;;;;19.20;56.20;;;;;;5080180;28;43993;-65
2023/01/08 08:00:39;;;;;;;;;;;19.20;56.30;;;;;;5075420;27;43371;-65
2023/01/08 08:03:10;;;;;;;;;;;19.20;56.30;;;;;;5070371;28;43395;-65
2023/01/08 08:05:37;;;;;;;;;;;19.20;56.20;;;;;;5080510;28;43490;-65
2023/01/08 08:08:09;;;;;;;;;;;19.20;56.20;;;;;;5078242;28;44809;-65
2023/01/08 08:10:37;;;;;;;;;;;19.20;56.20;;;;;;5081326;28;43404;-65
2023/01/08 08:13:05;;;;;;;;;;;19.20;56.20;;;;;;5084330;27;43397;-65
2023/01/08 08:15:32;;;;;;;;;;;19.20;56.20;;;;;;5078803;28;43492;-64
2023/01/08 08:18:00;;;;;;;;;;;19.20;56.20;;;;;;5078432;28;43778;-65
2023/01/08 08:20:27;;;;;;;;;;;19.10;56.20;;;;;;5079783;27;43451;-66
2023/01/08 08:23:05;;;;;;;;;;;19.10;56.20;;;;;;5079093;27;43348;-65
2023/01/08 08:25:33;;;;;;;;;;;19.20;56.30;;;;;;5085030;27;43426;-65
2023/01/08 08:28:01;;;;;;;;;;;19.10;56.30;;;;;;5076603;28;44648;-65
2023/01/08 08:30:29;;;;;;;;;;;19.10;56.30;;;;;;5082173;27;43429;-64
2023/01/08 08:32:57;;;;;;;;;;;19.10;56.30;;;;;;5080096;28;43394;-65
2023/01/08 08:35:25;;;;;;;;;;;19.10;56.30;;;;;;5079390;28;43442;-65
2023/01/08 08:37:53;;;;;;;;;;;19.10;56.30;;;;;;5076367;28;44943;-66
2023/01/08 08:40:21;;;;;;;;;;;19.10;56.30;;;;;;5080011;27;43402;-65
2023/01/08 08:42:48;;;;;;;;;;;19.10;56.30;;;;;;5078777;28;43453;-66
2023/01/08 08:45:16;;;;;;;;;;;19.10;56.40;;;;;;5076287;28;43593;-65
2023/01/08 08:47:43;;;;;;;;;;;19.00;56.30;;;;;;5075281;28;43803;-65
2023/01/08 08:50:10;;;;;;;;;;;19.10;56.40;;;;;;5078360;28;43422;-65
2023/01/08 08:52:38;;;;;;;;;;;19.10;56.30;;;;;;5079452;28;43454;-65
2023/01/08 08:55:05;;;;;;;;;;;19.10;56.30;;;;;;5082157;28;43493;-64
2023/01/08 08:57:33;;;;;;;;;;;19.00;56.40;;;;;;5074986;28;43925;-64
2023/01/08 09:00:00;;;;;;;;;;;19.00;56.30;;;;;;5080408;28;43611;-64
2023/01/08 09:02:27;;;;;;;;;;;19.00;56.40;;;;;;5080147;28;43802;-63
2023/01/08 09:04:55;;;;;;;;;;;19.00;56.40;;;;;;5079539;28;43466;-64
2023/01/08 09:07:22;;;;;;;;;;;19.00;56.40;;;;;;5077311;27;43782;-64
2023/01/08 09:09:50;;;;;;;;;;;19.00;56.30;;;;;;5084063;27;43569;-64
2023/01/08 09:12:17;;;;;;;;;;;19.00;56.40;;;;;;5082043;27;43404;-66
2023/01/08 09:14:45;;;;;;;;;;;19.00;56.70;;;;;;5079069;27;43481;-65
2023/01/08 09:17:12;;;;;;;;;;;19.00;56.70;;;;;;5082017;27;43855;-64
2023/01/08 09:19:39;;;;;;;;;;;19.00;56.60;;;;;;5077442;28;44073;-65
2023/01/08 09:22:07;;;;;;;;;;;19.00;56.60;;;;;;5078904;28;43405;-65
2023/01/08 09:24:34;;;;;;;;;;;19.00;56.60;;;;;;5077370;28;43538;-65
2023/01/08 09:27:01;;;;;;;;;;;19.00;56.60;;;;;;5077405;28;43811;-65
2023/01/08 09:29:28;;;;;;;;;;;19.00;56.60;;;;;;5077093;28;43434;-65
2023/01/08 09:31:59;;;;;;;;;;;19.00;57.20;;;;;;5077363;28;43437;-64
2023/01/08 09:34:26;;;;;;;;;;;19.10;56.50;;;;;;5080370;27;43430;-64
2023/01/08 09:36:53;;;;;;;;;;;19.10;56.50;;;;;;5081180;28;43625;-65
2023/01/08 09:39:21;;;;;;;;;;;19.20;56.40;;;;;;5077639;28;43778;-65
2023/01/08 09:41:49;;;;;;;;;;;19.20;56.30;;;;;;5078480;28;43493;-64
2023/01/08 09:44:19;;;;;;;;;;;19.30;56.60;;;;;;5082659;28;43414;-65
2023/01/08 09:46:47;;;;;;;;;;;19.30;56.30;;;;;;5073739;28;44043;-65
2023/01/08 09:49:18;;;;;;;;;;;19.40;56.20;;;;;;5078231;28;43415;-65
2023/01/08 09:51:45;;;;;;;;;;;19.40;56.10;;;;;;5078904;27;43566;-64
2023/01/08 09:54:14;;;;;;;;;;;19.40;56.10;;;;;;5080311;27;43795;-66
2023/01/08 09:56:41;;;;;;;;;;;19.50;55.90;;;;;;5081022;28;44646;-65
2023/01/08 09:59:15;;;;;;;;;;;19.50;55.70;;;;;;5080877;27;43917;-65
2023/01/08 10:01:44;;;;;;;;;;;19.60;55.80;;;;;;5080338;28;43480;-65
2023/01/08 10:04:15;;;;;;;;;;;19.60;55.80;;;;;;5080791;27;43470;-65
2023/01/08 10:06:45;;;;;;;;;;;19.70;55.70;;;;;;5080237;27;44066;-65
2023/01/08 10:09:13;;;;;;;;;;;19.80;55.60;;;;;;5083883;27;43790;-65
2023/01/08 10:11:45;;;;;;;;;;;19.90;55.60;;;;;;5079945;28;43852;-63
2023/01/08 10:14:38;;;;;;;;;;;20.00;55.60;;;;;;5081490;28;43357;-65
2023/01/08 10:17:20;;;;;;;;;;;20.00;55.50;;;;;;5073444;27;44977;-65
2023/01/08 10:19:48;;;;;;;;;;;20.10;55.30;;;;;;5079692;28;43449;-65
2023/01/08 10:22:16;;;;;;;;;;;20.10;55.20;;;;;;5079891;28;43450;-65
2023/01/08 10:24:44;;;;;;;;;;;20.20;55.20;;;;;;5080701;28;43474;-65
2023/01/08 10:27:12;;;;;;;;;;;20.20;55.00;;;;;;5085333;27;43775;-65
2023/01/08 10:29:40;;;;;;;;;;;20.30;55.10;;;;;;5080006;28;43363;-65
2023/01/08 10:32:09;;;;;;;;;;;20.30;55.00;;;;;;5081582;27;43454;-65
2023/01/08 10:34:43;;;;;;;;;;;20.40;55.00;;;;;;5076775;28;43462;-63
2023/01/08 10:37:27;;;;;;;;;;;20.40;54.80;;;;;;5083628;27;44043;-65
2023/01/08 10:40:17;;;;;;;;;;;20.50;54.90;;;;;;5079601;28;43786;-67
2023/01/08 10:42:45;;;;;;;;;;;20.50;55.00;;;;;;5073933;28;43538;-67
2023/01/08 10:45:31;;;;;;;;;;;20.60;54.80;;;;;;5083312;27;43593;-68
2023/01/08 10:48:01;;;;;;;;;;;20.70;55.20;;;;;;5079802;27;44971;-67
2023/01/08 10:50:29;;;;;;;;;;;20.80;55.20;;;;;;5080110;28;43453;-66
2023/01/08 10:52:58;;;;;;;;;;;20.80;55.40;;;;;;5077986;27;43440;-70
2023/01/08 10:55:34;;;;;;;;;;;20.90;54.80;;;;;;5081321;27;43573;-67
2023/01/08 10:58:04;;;;;;;;;;;21.00;54.90;;;;;;5071329;27;43906;-65
2023/01/08 11:00:33;;;;;;;;;;;21.00;54.80;;;;;;5081256;28;43506;-68
2023/01/08 11:03:01;;;;;;;;;;;21.10;54.90;;;;;;5083149;27;43445;-65
2023/01/08 11:05:33;;;;;;;;;;;21.30;54.60;;;;;;5083278;27;43488;-62
2023/01/08 11:08:02;;;;;;;;;;;21.30;54.50;;;;;;5078559;28;44681;-66
2023/01/08 11:10:35;;;;;;;;;;;21.50;54.20;;;;;;5081226;27;43542;-66
2023/01/08 11:13:04;;;;;;;;;;;21.50;54.10;;;;;;5080684;27;43529;-65
2023/01/08 11:15:33;;;;;;;;;;;21.60;54.00;;;;;;5080244;28;43425;-65
2023/01/08 11:18:13;;;;;;;;;;;21.60;53.90;;;;;;5079994;28;44955;-66
2023/01/08 11:20:41;;;;;;;;;;;21.70;53.80;;;;;;5078934;28;43435;-65
2023/01/08 11:23:15;;;;;;;;;;;21.70;53.50;;;;;;5081825;27;43532;-65
2023/01/08 11:25:46;;;;;;;;;;;21.80;53.50;;;;;;5081526;27;44232;-66
2023/01/08 11:28:15;;;;;;;;;;;21.80;53.50;;;;;;5077740;28;44019;-66
2023/01/08 11:30:47;;;;;;;;;;;21.90;53.40;;;;;;5080690;27;43376;-66
2023/01/08 11:33:20;;;;;;;;;;;21.90;53.30;;;;;;5082829;27;43439;-66
2023/01/08 11:35:48;;;;;;;;;;;21.90;53.50;;;;;;5070413;27;43511;-65
2023/01/08 11:38:16;;;;;;;;;;;21.90;53.40;;;;;;5080055;27;45761;-66
2023/01/08 11:40:51;;;;;;;;;;;21.90;53.30;;;;;;5086885;27;43486;-67
2023/01/08 11:43:18;;;;;;;;;;;21.90;53.30;;;;;;5088492;27;43383;-68
2023/01/08 11:45:48;;;;;;;;;;;21.90;53.40;;;;;;5083755;27;43512;-67
2023/01/08 11:48:34;;;;;;;;;;;21.90;53.40;;;;;;5079814;28;43799;-67
2023/01/08 11:51:14;;;;;;;;;;;21.90;53.50;;;;;;5085169;27;43466;-67
2023/01/08 11:53:45;;;;;;;;;;;21.90;53.60;;;;;;5081808;28;43482;-68
2023/01/08 11:56:31;;;;;;;;;;;21.90;53.60;;;;;;5063614;28;43461;-68
2023/01/08 11:59:05;;;;;;;;;;;21.80;53.60;;;;;;5085347;27;43774;-69
2023/01/08 12:01:39;;;;;;;;;;;21.80;53.60;;;;;;5080349;27;44225;-68
2023/01/08 12:04:27;;;;;;;;;;;21.80;53.60;;;;;;5079761;27;43472;-68
2023/01/08 12:07:00;;;;;;;;;;;21.80;53.70;;;;;;5064500;28;43546;-68
2023/01/08 12:09:27;;;;;;;;;;;21.70;53.60;;;;;;5082325;27;43959;-67
2023/01/08 12:11:59;;;;;;;;;;;21.80;53.80;;;;;;5081757;27;43695;-68
2023/01/08 12:14:40;;;;;;;;;;;21.70;53.70;;;;;;5084427;27;43441;-68
2023/01/08 12:17:10;;;;;;;;;;;21.70;53.80;;;;;;5082633;27;43395;-67
2023/01/08 12:19:44;;;;;;;;;;;21.70;53.80;;;;;;5082226;28;44813;-67
2023/01/08 12:22:31;;;;;;;;;;;21.70;53.80;;;;;;5080072;28;43437;-67
2023/01/08 12:25:10;;;;;;;;;;;21.70;53.90;;;;;;5083047;27;43532;-66
2023/01/08 12:27:46;;;;;;;;;;;21.70;53.90;;;;;;5081974;28;43489;-66
2023/01/08 12:30:28;;;;;;;;;;;21.70;53.80;;;;;;5083616;27;44050;-66
2023/01/08 12:33:24;;;;;;;;;;;21.60;54.40;;;;;;5085649;27;43486;-66
2023/01/08 12:35:53;;;;;;;;;;;21.60;53.90;;;;;;5066104;28;43525;-67
2023/01/08 12:38:25;;;;;;;;;;;21.60;54.00;;;;;;5093579;27;43586;-66
2023/01/08 12:40:55;;;;;;;;;;;21.60;54.00;;;;;;5082312;27;44062;-66
2023/01/08 12:43:41;;;;;;;;;;;21.50;54.00;;;;;;5083023;27;43351;-66
2023/01/08 12:46:10;;;;;;;;;;;21.50;54.10;;;;;;5085470;27;43498;-66
2023/01/08 12:48:38;;;;;;;;;;;21.40;54.10;;;;;;5077088;27;43458;-66
2023/01/08 12:51:24;;;;;;;;;;;21.40;54.10;;;;;;5080889;27;43732;-65
2023/01/08 12:54:10;;;;;;;;;;;21.40;54.90;;;;;;5077012;28;43490;-65
2023/01/08 12:56:57;;;;;;;;;;;21.30;54.20;;;;;;5077670;28;43537;-66
2023/01/08 12:59:36;;;;;;;;;;;21.30;54.30;;;;;;5080083;27;43402;-65
2023/01/08 13:02:23;;;;;;;;;;;21.30;54.30;;;;;;5071811;28;44033;-65
2023/01/08 13:04:50;;;;;;;;;;;21.30;54.40;;;;;;5078537;28;43414;-66
2023/01/08 13:07:32;;;;;;;;;;;21.20;55.00;;;;;;5079170;27;43400;-65
2023/01/08 13:10:05;;;;;;;;;;;21.20;54.50;;;;;;5082880;27;43442;-64
2023/01/08 13:12:38;;;;;;;;;;;21.20;54.50;;;;;;5076895;28;43785;-65
2023/01/08 13:15:06;;;;;;;;;;;21.20;54.50;;;;;;5076359;28;43560;-65
2023/01/08 13:17:36;;;;;;;;;;;21.20;54.50;;;;;;5079601;27;43502;-64
2023/01/08 13:20:05;;;;;;;;;;;21.10;54.50;;;;;;5088988;27;43443;-64
2023/01/08 13:22:34;;;;;;;;;;;21.10;54.70;;;;;;5078912;27;44661;-64
2023/01/08 13:25:16;;;;;;;;;;;21.10;54.70;;;;;;5074927;27;43759;-64
2023/01/08 13:27:45;;;;;;;;;;;21.10;54.70;;;;;;5072161;28;43372;-64
2023/01/08 13:30:31;;;;;;;;;;;21.00;54.70;;;;;;5078718;28;43612;-64
2023/01/08 13:32:59;;;;;;;;;;;21.00;54.70;;;;;;5074809;28;43778;-65
2023/01/08 13:35:30;;;;;;;;;;;21.00;54.80;;;;;;5082308;27;43495;-64
2023/01/08 13:38:18;;;;;;;;;;;21.00;54.90;;;;;;5078562;27;43461;-64
2023/01/08 13:40:45;;;;;;;;;;;21.00;54.80;;;;;;5078629;28;43496;-66
2023/01/08 13:43:22;;;;;;;;;;;21.00;54.90;;;;;;5079129;28;44982;-64
2023/01/08 13:45:59;;;;;;;;;;;21.00;54.90;;;;;;5083061;27;43507;-64
2023/01/08 13:48:31;;;;;;;;;;;21.00;54.80;;;;;;5076842;28;43502;-65
2023/01/08 13:50:58;;;;;;;;;;;20.90;54.80;;;;;;5075035;28;43537;-64
2023/01/08 13:53:26;;;;;;;;;;;20.90;54.80;;;;;;5072337;28;44809;-64
2023/01/08 13:55:57;;;;;;;;;;;20.90;54.80;;;;;;5081929;28;43429;-64
2023/01/08 13:58:34;;;;;;;;;;;20.90;54.80;;;;;;5075597;27;43387;-64
2023/01/08 14:01:02;;;;;;;;;;;20.90;54.90;;;;;;5073686;28;43481;-64
2023/01/08 14:03:29;;;;;;;;;;;20.90;54.90;;;;;;5076093;28;45022;-64
2023/01/08 14:06:04;;;;;;;;;;;20.80;55.00;;;;;;5077381;28;43506;-64
2023/01/08 14:08:32;;;;;;;;;;;20.90;55.00;;;;;;5076126;28;43486;-64
2023/01/08 14:11:01;;;;;;;;;;;20.80;55.00;;;;;;5082256;28;43439;-65
2023/01/08 14:13:30;;;;;;;;;;;20.80;55.10;;;;;;5080684;28;44662;-65
2023/01/08 14:16:00;;;;;;;;;;;20.80;55.20;;;;;;5075420;28;43570;-64
2023/01/08 14:18:27;;;;;;;;;;;20.80;55.20;;;;;;5091976;27;43500;-64
2023/01/08 14:20:57;;;;;;;;;;;20.80;55.10;;;;;;5077903;28;60647;-64
2023/01/08 14:23:30;;;;;;;;;;;20.80;55.20;;;;;;5082455;28;45014;-64
2023/01/08 14:26:01;;;;;;;;;;;20.70;55.10;;;;;;5081203;28;43531;-64
2023/01/08 14:28:28;;;;;;;;;;;20.80;55.20;;;;;;5077054;28;43402;-65
2023/01/08 14:30:56;;;;;;;;;;;20.70;55.10;;;;;;5078321;28;43612;-64
2023/01/08 14:33:33;;;;;;;;;;;20.70;55.10;;;;;;5080106;27;45020;-64